Time;durP1;ratioP1;P1;durP2;ratioP2;P2;SDS_P1;SDS_P2;PMS_P1;PMS_P2;Temp;Humidity;BMP_temperature;BMP_pressure;BME280_temperature;BME280_humidity;BME280_pressure;Samples;Min_cycle;Max_cycle;Signal;HPM_P1;HPM_P2
2022/07/31 00:00:10;;;;;;;7.97;6.07;;;;;;;20.69;67.12;101607.22;5094482;28;20028;-57
2022/07/31 00:02:36;;;;;;;11.23;6.72;;;;;;;20.64;67.27;101610.06;5094300;28;20498;-57
2022/07/31 00:05:02;;;;;;;8.48;6.10;;;;;;;20.63;67.72;101608.34;5094546;28;20085;-57
2022/07/31 00:07:27;;;;;;;10.55;6.57;;;;;;;20.68;67.29;101609.03;5094684;28;20066;-57
2022/07/31 00:09:54;;;;;;;8.07;6.82;;;;;;;20.67;67.43;101604.63;5094498;28;20388;-59
2022/07/31 00:12:20;;;;;;;9.80;6.13;;;;;;;20.66;67.98;101604.69;5094689;28;20042;-58
2022/07/31 00:14:45;;;;;;;9.18;6.72;;;;;;;20.70;67.26;101601.84;5094032;28;20032;-57
2022/07/31 00:17:11;;;;;;;13.02;7.40;;;;;;;20.66;67.90;101594.06;5094508;28;20054;-57
2022/07/31 00:19:36;;;;;;;8.48;6.70;;;;;;;20.69;67.62;101596.59;5094535;28;20067;-57
2022/07/31 00:22:01;;;;;;;13.20;7.63;;;;;;;20.69;67.24;101589.47;5094356;28;20063;-58
2022/07/31 00:24:28;;;;;;;11.50;6.95;;;;;;;20.67;67.49;101588.66;5094481;28;20266;-58
2022/07/31 00:26:53;;;;;;;10.75;7.57;;;;;;;20.61;66.27;101594.25;5094380;28;20039;-56
2022/07/31 00:29:19;;;;;;;9.75;7.10;;;;;;;20.63;66.74;101591.53;5094244;28;20036;-58
2022/07/31 00:31:44;;;;;;;11.23;7.13;;;;;;;20.64;66.67;101593.25;5094181;28;20055;-58
2022/07/31 00:34:10;;;;;;;10.05;6.68;;;;;;;20.62;66.62;101590.66;5094156;28;20039;-57
2022/07/31 00:36:35;;;;;;;9.30;7.07;;;;;;;20.57;66.30;101592.66;5094364;28;20089;-58
2022/07/31 00:39:01;;;;;;;10.75;7.35;;;;;;;20.52;66.36;101604.44;5094011;28;20053;-60
2022/07/31 00:41:38;;;;;;;9.85;7.20;;;;;;;20.48;66.35;101601.03;5106494;28;20044;-58
2022/07/31 00:44:04;;;;;;;10.63;6.88;;;;;;;20.46;66.80;101595.78;5108056;28;20039;-59
2022/07/31 00:46:29;;;;;;;10.75;7.38;;;;;;;20.44;66.49;101591.44;5093532;28;20343;-59
2022/07/31 00:48:55;;;;;;;9.27;7.47;;;;;;;20.42;66.60;101593.31;5093531;28;20443;-57
2022/07/31 00:51:20;;;;;;;10.23;7.20;;;;;;;20.39;66.38;101593.44;5093834;28;20445;-58
2022/07/31 00:53:45;;;;;;;9.97;7.27;;;;;;;20.39;66.14;101593.44;5093585;28;20273;-58
2022/07/31 00:56:10;;;;;;;10.48;7.72;;;;;;;20.31;66.53;101577.78;5093321;28;20274;-59
2022/07/31 00:58:36;;;;;;;7.83;6.43;;;;;;;20.30;67.03;101588.47;5101668;28;20050;-60
2022/07/31 01:01:01;;;;;;;9.20;6.68;;;;;;;20.30;66.20;101581.38;5109779;28;20276;-60
2022/07/31 01:03:26;;;;;;;9.45;6.95;;;;;;;20.23;66.20;101577.25;5113864;28;20462;-59
2022/07/31 01:05:51;;;;;;;9.60;6.75;;;;;;;20.29;66.28;101578.75;5114020;28;20035;-59
2022/07/31 01:08:17;;;;;;;8.80;6.43;;;;;;;20.27;66.06;101578.81;5113813;28;20088;-59
2022/07/31 01:10:57;;;;;;;10.40;6.43;;;;;;;20.25;66.18;101591.34;5113555;28;20324;-59
2022/07/31 01:13:34;;;;;;;8.48;6.38;;;;;;;20.20;66.41;101585.34;5113692;28;20031;-59
2022/07/31 01:16:02;;;;;;;10.27;6.50;;;;;;;20.12;67.18;101587.44;5113694;28;20032;-58
2022/07/31 01:18:30;;;;;;;8.32;6.38;;;;;;;20.11;67.19;101588.38;5113475;28;20434;-59
2022/07/31 01:21:00;;;;;;;9.00;5.93;;;;;;;20.14;67.60;101589.13;5113582;28;20023;-59
2022/07/31 01:23:55;;;;;;;11.65;6.20;;;;;;;20.14;67.20;101588.25;5113482;28;20127;-59
2022/07/31 01:26:33;;;;;;;9.77;6.07;;;;;;;20.14;67.42;101589.13;5113474;28;20031;-59
2022/07/31 01:29:23;;;;;;;10.32;6.45;;;;;;;20.15;67.22;101589.97;5112911;28;20071;-60
2022/07/31 01:31:57;;;;;;;11.20;6.20;;;;;;;20.11;68.03;101575.09;5113182;28;20047;-59
2022/07/31 01:34:47;;;;;;;9.80;6.70;;;;;;;20.09;67.74;101575.13;5113311;28;20144;-59
2022/07/31 01:37:34;;;;;;;10.63;6.72;;;;;;;20.05;68.83;101576.22;5113616;28;20039;-59
2022/07/31 01:40:08;;;;;;;8.45;6.85;;;;;;;20.02;68.74;101573.69;5112960;28;20435;-59
2022/07/31 01:42:38;;;;;;;9.35;6.68;;;;;;;20.01;69.51;101574.59;5113334;28;20050;-58
2022/07/31 01:45:06;;;;;;;10.23;6.93;;;;;;;20.00;69.75;101574.66;5113013;28;20047;-58
2022/07/31 01:47:33;;;;;;;9.90;6.65;;;;;;;19.94;70.02;101567.81;5113150;28;20101;-59
2022/07/31 01:50:01;;;;;;;11.63;7.97;;;;;;;19.83;70.55;101574.47;5112972;28;20446;-58
2022/07/31 01:52:28;;;;;;;11.40;8.02;;;;;;;19.73;71.42;101572.22;5112930;28;20062;-58
2022/07/31 01:54:57;;;;;;;10.25;8.20;;;;;;;19.61;71.40;101564.72;5112799;28;20039;-59
2022/07/31 01:57:24;;;;;;;12.20;8.25;;;;;;;19.68;71.22;101581.28;5112531;28;20074;-59
2022/07/31 01:59:52;;;;;;;10.63;8.27;;;;;;;19.66;71.49;101576.03;5112728;28;20115;-58
2022/07/31 02:02:19;;;;;;;12.77;8.32;;;;;;;19.60;71.04;101573.59;5112849;28;20031;-60
2022/07/31 02:04:46;;;;;;;10.48;7.82;;;;;;;19.50;71.03;101571.38;5112690;28;20040;-59
2022/07/31 02:07:13;;;;;;;12.63;7.68;;;;;;;19.53;70.65;101568.59;5112736;28;20111;-59
2022/07/31 02:09:41;;;;;;;9.68;7.70;;;;;;;19.49;71.00;101573.13;5112651;28;20344;-58
2022/07/31 02:12:10;;;;;;;12.63;7.82;;;;;;;19.46;70.54;101571.44;5111601;28;20047;-58
2022/07/31 02:14:36;;;;;;;11.18;7.70;;;;;;;19.42;70.77;101567.19;5112753;28;20035;-60
2022/07/31 02:17:02;;;;;;;13.00;8.52;;;;;;;19.43;70.91;101562.75;5112644;28;20039;-58
2022/07/31 02:19:28;;;;;;;14.73;8.00;;;;;;;19.44;71.07;101565.34;5112609;28;20036;-57
2022/07/31 02:21:54;;;;;;;15.50;7.70;;;;;;;19.46;71.16;101563.50;5112495;28;20050;-59
2022/07/31 02:24:21;;;;;;;14.30;8.38;;;;;;;19.45;70.97;101563.53;5112442;28;20031;-60
2022/07/31 02:26:47;;;;;;;12.20;7.80;;;;;;;19.46;71.22;101562.63;5112420;28;20046;-58
2022/07/31 02:29:14;;;;;;;11.00;8.20;;;;;;;19.43;71.20;101568.91;5112322;28;20362;-57
2022/07/31 02:31:43;;;;;;;12.35;7.97;;;;;;;19.47;71.48;101567.88;5112284;28;20439;-58
2022/07/31 02:34:10;;;;;;;10.25;7.95;;;;;;;19.42;71.84;101576.94;5112013;28;20484;-58
2022/07/31 02:36:36;;;;;;;12.15;7.65;;;;;;;19.43;71.88;101573.34;5112147;28;20038;-57
2022/07/31 02:39:02;;;;;;;13.80;8.38;;;;;;;19.36;72.32;101569.22;5112214;28;20075;-58
2022/07/31 02:41:28;;;;;;;10.88;8.32;;;;;;;19.35;72.73;101567.50;5112001;28;20590;-58
2022/07/31 02:43:54;;;;;;;13.60;8.50;;;;;;;19.35;73.18;101562.19;5112164;28;20031;-58
2022/07/31 02:46:20;;;;;;;12.95;8.43;;;;;;;19.31;73.45;101568.53;5112130;28;20039;-59
2022/07/31 02:48:48;;;;;;;12.07;8.43;;;;;;;19.29;73.27;101570.38;5112162;28;20036;-59
2022/07/31 02:51:13;;;;;;;11.43;8.25;;;;;;;19.29;73.72;101565.94;5111690;28;20389;-58
2022/07/31 02:53:39;;;;;;;11.75;8.65;;;;;;;19.25;73.91;101563.44;5111882;28;20118;-59
2022/07/31 02:56:05;;;;;;;11.13;9.20;;;;;;;19.24;74.02;101562.56;5112089;28;20039;-59
2022/07/31 02:58:30;;;;;;;12.35;8.98;;;;;;;19.18;74.21;101568.13;5112088;28;20118;-57
2022/07/31 03:01:04;;;;;;;11.60;9.73;;;;;;;19.18;73.92;101560.16;5111942;28;20123;-59
2022/07/31 03:03:29;;;;;;;14.30;9.00;;;;;;;19.15;74.89;101554.09;5111846;28;20039;-58
2022/07/31 03:05:55;;;;;;;13.00;9.02;;;;;;;19.10;74.69;101539.22;5111678;28;20047;-60
2022/07/31 03:08:20;;;;;;;10.82;8.43;;;;;;;19.16;74.49;101550.53;5111849;28;20043;-59
2022/07/31 03:10:46;;;;;;;13.02;9.38;;;;;;;19.11;74.95;101551.56;5111595;28;20047;-59
2022/07/31 03:13:12;;;;;;;13.25;8.90;;;;;;;19.09;74.98;101556.06;5111989;28;20088;-59
2022/07/31 03:15:39;;;;;;;11.90;8.85;;;;;;;19.13;74.78;101548.84;5111788;28;20032;-58
2022/07/31 03:18:05;;;;;;;12.50;9.23;;;;;;;19.17;74.22;101544.31;5111657;28;20031;-58
2022/07/31 03:20:31;;;;;;;10.98;8.90;;;;;;;19.09;75.08;101552.53;5111767;28;20039;-59
2022/07/31 03:22:58;;;;;;;12.23;9.10;;;;;;;19.12;75.13;101547.13;5112765;28;20066;-60
2022/07/31 03:25:25;;;;;;;15.05;9.30;;;;;;;19.16;74.85;101539.91;5115702;28;20031;-57
2022/07/31 03:27:51;;;;;;;12.50;9.43;;;;;;;19.10;74.82;101541.00;5115823;28;20054;-59
2022/07/31 03:30:17;;;;;;;12.68;9.68;;;;;;;19.11;74.71;101540.09;5115622;28;20070;-60
2022/07/31 03:32:43;;;;;;;14.65;11.27;;;;;;;19.00;75.00;101543.16;5115426;28;20032;-59
2022/07/31 03:35:09;;;;;;;12.43;10.80;;;;;;;19.09;74.44;101540.13;5115488;28;20046;-59
2022/07/31 03:37:34;;;;;;;13.60;10.98;;;;;;;19.06;74.65;101547.34;5115525;28;20042;-58
2022/07/31 03:39:59;;;;;;;16.33;11.90;;;;;;;18.98;74.23;101534.38;5115625;28;20035;-59
2022/07/31 03:42:26;;;;;;;12.83;11.33;;;;;;;18.92;75.23;101531.94;5115433;28;20269;-58
2022/07/31 03:44:52;;;;;;;13.15;11.45;;;;;;;18.91;75.06;101534.66;5115194;28;20269;-61
2022/07/31 03:47:18;;;;;;;17.88;12.57;;;;;;;18.91;75.02;101540.81;5115217;28;20525;-58
2022/07/31 03:49:44;;;;;;;13.60;12.10;;;;;;;18.90;75.08;101540.88;5115426;28;20060;-59
2022/07/31 03:52:10;;;;;;;14.35;11.77;;;;;;;18.94;75.08;101535.41;5115360;28;20108;-59
2022/07/31 03:54:35;;;;;;;13.35;11.90;;;;;;;18.93;75.07;101535.47;5115324;28;20089;-59
2022/07/31 03:57:01;;;;;;;12.77;11.48;;;;;;;18.94;75.15;101537.19;5115325;28;20451;-59
2022/07/31 03:59:27;;;;;;;15.90;12.05;;;;;;;19.01;75.02;101542.22;5114593;28;20036;-58
2022/07/31 04:01:52;;;;;;;15.05;11.65;;;;;;;18.97;75.03;101537.94;5115127;28;20031;-58
2022/07/31 04:04:18;;;;;;;15.80;11.75;;;;;;;19.03;74.70;101543.03;5115036;28;20355;-59
2022/07/31 04:06:43;;;;;;;14.73;12.40;;;;;;;19.02;74.79;101536.00;5115068;28;20023;-59
2022/07/31 04:09:08;;;;;;;16.30;12.48;;;;;;;19.00;75.12;101542.28;5115014;28;20882;-59
2022/07/31 04:11:34;;;;;;;14.65;12.27;;;;;;;19.05;74.94;101545.59;5115096;28;20126;-59
2022/07/31 04:13:59;;;;;;;15.38;12.48;;;;;;;19.00;74.79;101540.50;5114923;28;20027;-59
2022/07/31 04:16:24;;;;;;;15.85;12.45;;;;;;;18.90;75.38;101547.03;5109361;28;20039;-59
2022/07/31 04:18:49;;;;;;;17.33;11.57;;;;;;;18.89;75.36;101550.63;5096179;28;20652;-59
2022/07/31 04:21:15;;;;;;;13.13;11.38;;;;;;;18.90;75.34;101557.66;5094479;28;20024;-58
2022/07/31 04:23:40;;;;;;;14.77;11.77;;;;;;;18.83;75.96;101550.88;5094416;28;20415;-58
2022/07/31 04:26:05;;;;;;;13.90;11.30;;;;;;;18.81;75.97;101559.78;5094473;28;20036;-59
2022/07/31 04:28:31;;;;;;;16.60;11.02;;;;;;;18.81;76.38;101560.66;5094398;28;20713;-59
2022/07/31 04:30:56;;;;;;;13.15;10.63;;;;;;;18.80;76.76;101563.38;5094059;28;20047;-59
2022/07/31 04:33:21;;;;;;;12.45;10.23;;;;;;;18.72;77.01;101553.88;5094022;28;20048;-59
2022/07/31 04:35:47;;;;;;;13.32;10.80;;;;;;;18.73;77.43;101560.06;5092681;28;20051;-60
2022/07/31 04:38:13;;;;;;;14.85;9.65;;;;;;;18.79;77.11;101551.88;5094036;28;20165;-59
2022/07/31 04:40:38;;;;;;;11.98;9.23;;;;;;;18.90;76.77;101564.75;5094083;28;20167;-59
2022/07/31 04:43:03;;;;;;;12.68;10.15;;;;;;;18.83;77.52;101563.25;5093879;28;20427;-59
2022/07/31 04:45:29;;;;;;;13.13;9.53;;;;;;;18.75;77.92;101568.81;5093931;28;20108;-59
2022/07/31 04:47:55;;;;;;;12.27;9.23;;;;;;;18.84;77.79;101546.44;5093650;28;20293;-59
2022/07/31 04:50:20;;;;;;;12.45;8.90;;;;;;;18.89;77.78;101561.22;5093331;28;20100;-58
2022/07/31 04:52:45;;;;;;;10.05;8.18;;;;;;;18.84;78.69;101557.03;5093832;28;20032;-59
2022/07/31 04:55:11;;;;;;;11.50;8.32;;;;;;;18.84;79.05;101551.72;5093712;28;20081;-58
2022/07/31 04:57:36;;;;;;;9.23;8.30;;;;;;;18.83;79.15;101552.66;5094335;28;20089;-58
2022/07/31 05:00:04;;;;;;;9.85;7.45;;;;;;;18.87;79.33;101549.84;5093534;28;20040;-58
2022/07/31 05:02:29;;;;;;;9.75;7.57;;;;;;;18.90;79.00;101557.66;5093318;28;20123;-58
2022/07/31 05:04:54;;;;;;;9.02;7.05;;;;;;;18.97;78.90;101545.91;5093380;28;20115;-58
2022/07/31 05:07:21;;;;;;;8.20;7.40;;;;;;;18.88;79.47;101551.53;5093395;28;20401;-58
2022/07/31 05:09:46;;;;;;;11.57;7.70;;;;;;;18.90;79.98;101555.00;5093066;28;20104;-58
2022/07/31 05:12:11;;;;;;;10.67;7.40;;;;;;;18.92;79.96;101550.50;5102852;28;20122;-59
2022/07/31 05:14:37;;;;;;;9.30;6.80;;;;;;;18.89;80.67;101549.75;5102260;28;20740;-58
2022/07/31 05:17:02;;;;;;;8.38;7.00;;;;;;;18.88;80.88;101540.06;5103931;28;20325;-59
2022/07/31 05:19:29;;;;;;;8.48;6.30;;;;;;;18.80;81.04;101535.06;5101848;28;20043;-58
2022/07/31 05:21:54;;;;;;;9.93;6.90;;;;;;;18.91;80.78;101526.69;5110809;28;20042;-58
2022/07/31 05:24:20;;;;;;;8.13;5.60;;;;;;;18.99;80.52;101530.81;5107035;28;20057;-59
2022/07/31 05:26:46;;;;;;;7.35;6.38;;;;;;;18.95;81.08;101537.13;5113650;28;20362;-59
2022/07/31 05:29:11;;;;;;;11.87;6.03;;;;;;;18.91;81.10;101530.22;5113263;28;20046;-58
2022/07/31 05:31:36;;;;;;;8.73;6.07;;;;;;;18.90;81.49;101536.44;5113114;28;20352;-58
2022/07/31 05:34:01;;;;;;;9.50;5.77;;;;;;;18.91;81.88;101530.22;5113131;28;20720;-58
2022/07/31 05:36:27;;;;;;;7.88;6.05;;;;;;;18.92;82.41;101529.28;5113219;28;20326;-59
2022/07/31 05:38:52;;;;;;;8.65;5.65;;;;;;;18.92;82.42;101523.97;5113267;28;20028;-58
2022/07/31 05:41:18;;;;;;;8.00;5.70;;;;;;;18.95;82.33;101523.88;5113094;28;20164;-58
2022/07/31 05:43:44;;;;;;;8.93;6.03;;;;;;;18.95;82.86;101523.00;5113006;28;20050;-59
2022/07/31 05:46:12;;;;;;;6.93;5.27;;;;;;;18.98;82.59;101521.13;5112972;28;20039;-58
2022/07/31 05:48:38;;;;;;;7.70;5.63;;;;;;;18.94;83.10;101529.25;5112929;28;20279;-58
2022/07/31 05:51:08;;;;;;;11.15;5.70;;;;;;;18.94;83.77;101537.19;5112747;28;20028;-58
2022/07/31 05:53:33;;;;;;;7.63;4.80;;;;;;;19.02;83.24;101525.41;5112915;28;20336;-59
2022/07/31 05:55:58;;;;;;;8.98;5.55;;;;;;;19.06;83.44;101526.13;5112757;28;20036;-59
2022/07/31 05:58:23;;;;;;;6.97;5.20;;;;;;;19.05;83.65;101530.56;5112750;28;20035;-59
2022/07/31 06:00:49;;;;;;;8.45;5.60;;;;;;;19.08;83.66;101533.09;5112692;28;20277;-57
2022/07/31 06:03:15;;;;;;;8.30;5.72;;;;;;;19.09;83.43;101536.63;5112598;28;20460;-57
2022/07/31 06:05:41;;;;;;;8.13;5.10;;;;;;;19.16;83.08;101537.25;5112703;28;20035;-56
2022/07/31 06:08:08;;;;;;;6.25;5.07;;;;;;;19.22;82.53;101532.56;5112685;28;20035;-56
2022/07/31 06:10:34;;;;;;;8.07;5.50;;;;;;;19.25;82.66;101527.16;5112652;28;20114;-54
2022/07/31 06:12:59;;;;;;;6.13;5.53;;;;;;;19.20;83.49;101529.13;5112717;28;20138;-55
2022/07/31 06:15:24;;;;;;;7.50;5.72;;;;;;;19.21;83.64;101536.19;5112693;28;20043;-55
2022/07/31 06:17:50;;;;;;;7.18;5.53;;;;;;;19.19;83.86;101526.53;5112566;28;20443;-56
2022/07/31 06:20:15;;;;;;;5.85;5.10;;;;;;;19.17;83.89;101534.56;5112410;28;20116;-56
2022/07/31 06:22:44;;;;;;;8.90;5.10;;;;;;;19.20;83.67;101529.13;5112459;28;20034;-54
2022/07/31 06:25:10;;;;;;;7.18;5.22;;;;;;;19.25;84.35;101531.59;5109023;28;20033;-55
2022/07/31 06:27:36;;;;;;;7.43;5.15;;;;;;;19.25;83.90;101523.63;5101257;28;20028;-55
2022/07/31 06:30:04;;;;;;;6.95;4.97;;;;;;;19.31;83.38;101521.63;5102600;28;20442;-55
2022/07/31 06:32:30;;;;;;;8.57;5.32;;;;;;;19.32;84.08;101526.00;5102654;28;20042;-55
2022/07/31 06:34:55;;;;;;;9.07;5.55;;;;;;;19.21;84.25;101506.13;5112113;28;20472;-55
2022/07/31 06:37:21;;;;;;;8.37;5.37;;;;;;;19.30;84.46;101517.22;5111762;28;20035;-54
2022/07/31 06:39:46;;;;;;;10.37;5.57;;;;;;;19.32;84.77;101517.19;5111653;28;20608;-55
2022/07/31 06:42:17;;;;;;;9.53;5.37;;;;;;;19.33;84.59;101524.22;5112056;28;20277;-54
2022/07/31 06:44:43;;;;;;;7.60;5.70;;;;;;;19.36;84.51;101522.31;5111848;28;20296;-54
2022/07/31 06:47:08;;;;;;;6.65;5.30;;;;;;;19.40;84.34;101518.59;5111886;28;20032;-55
2022/07/31 06:49:33;;;;;;;7.03;5.45;;;;;;;19.44;84.41;101522.00;5112149;28;20050;-55
2022/07/31 06:51:58;;;;;;;6.60;5.20;;;;;;;19.52;83.87;101529.69;5100913;28;20039;-55
2022/07/31 06:54:24;;;;;;;7.10;5.25;;;;;;;19.59;83.90;101532.03;5111911;28;20034;-56
2022/07/31 06:56:49;;;;;;;12.27;6.40;;;;;;;19.68;84.17;101529.03;5111888;28;20386;-57
2022/07/31 06:59:14;;;;;;;8.30;5.77;;;;;;;19.75;83.57;101522.53;5118219;28;20058;-56
2022/07/31 07:01:40;;;;;;;8.88;5.47;;;;;;;19.84;83.10;101515.13;5118708;28;20273;-59
2022/07/31 07:04:05;;;;;;;6.68;5.93;;;;;;;19.93;82.71;101515.59;5118560;28;20084;-59
2022/07/31 07:06:30;;;;;;;8.23;5.70;;;;;;;20.03;82.33;101518.75;5118828;28;20055;-58
2022/07/31 07:08:55;;;;;;;8.10;5.57;;;;;;;20.11;82.04;101513.97;5118152;28;20265;-58
2022/07/31 07:11:21;;;;;;;9.55;5.80;;;;;;;20.14;81.68;101520.00;5118626;28;20092;-59
2022/07/31 07:13:46;;;;;;;7.30;6.20;;;;;;;20.08;82.09;101517.63;5118657;28;20031;-59
2022/07/31 07:16:12;;;;;;;9.05;6.18;;;;;;;19.97;82.54;101521.66;5118532;28;20273;-59
2022/07/31 07:18:38;;;;;;;7.95;6.60;;;;;;;19.96;83.20;101522.56;5118288;28;20050;-58
2022/07/31 07:21:03;;;;;;;9.75;6.80;;;;;;;20.05;82.54;101517.75;5118623;28;20032;-58
2022/07/31 07:23:29;;;;;;;10.45;7.45;;;;;;;20.19;82.60;101522.47;5118221;28;20035;-58
2022/07/31 07:25:54;;;;;;;9.02;6.50;;;;;;;20.45;81.26;101522.25;5118529;28;20039;-58
2022/07/31 07:28:19;;;;;;;11.73;6.60;;;;;;;20.65;80.78;101521.38;5118508;28;20028;-58
2022/07/31 07:30:44;;;;;;;10.47;7.00;;;;;;;20.80;79.70;101519.81;5118450;28;20297;-57
2022/07/31 07:33:10;;;;;;;11.90;7.57;;;;;;;20.87;79.48;101515.97;5118279;28;20756;-57
2022/07/31 07:35:35;;;;;;;12.70;8.20;;;;;;;20.89;79.10;101508.78;5118405;28;20285;-58
2022/07/31 07:38:01;;;;;;;10.95;8.30;;;;;;;21.07;79.02;101509.72;5118370;28;20265;-58
2022/07/31 07:40:27;;;;;;;10.32;8.27;;;;;;;21.19;78.48;101506.47;5118421;28;20046;-58
2022/07/31 07:42:52;;;;;;;11.88;8.80;;;;;;;21.14;77.41;101504.03;5118440;28;20039;-58
2022/07/31 07:45:18;;;;;;;11.27;9.38;;;;;;;21.07;78.55;101507.06;5118254;28;20035;-58
2022/07/31 07:47:43;;;;;;;13.50;10.15;;;;;;;21.02;78.60;101503.75;5118468;28;20465;-58
2022/07/31 07:50:09;;;;;;;13.88;10.73;;;;;;;20.99;78.87;101503.88;5118278;28;20038;-54
2022/07/31 07:52:36;;;;;;;12.65;9.98;;;;;;;20.93;79.20;101510.38;5118410;28;20047;-58
2022/07/31 07:55:03;;;;;;;13.63;9.95;;;;;;;20.98;79.21;101502.16;5112030;28;20067;-58
2022/07/31 07:57:29;;;;;;;12.68;9.50;;;;;;;21.09;79.21;101506.06;5103155;28;20027;-58
2022/07/31 07:59:54;;;;;;;13.35;10.40;;;;;;;21.09;78.80;101495.41;5115271;28;20055;-58
2022/07/31 08:02:19;;;;;;;13.65;9.90;;;;;;;21.08;79.30;101504.34;5118324;28;20035;-59
2022/07/31 08:04:45;;;;;;;13.73;10.50;;;;;;;21.11;79.48;101506.00;5118432;28;20751;-59
2022/07/31 08:07:10;;;;;;;12.20;9.52;;;;;;;21.27;78.73;101498.19;5118208;28;20036;-58
2022/07/31 08:09:35;;;;;;;13.15;9.43;;;;;;;21.34;77.92;101507.59;5116708;28;20066;-57
2022/07/31 08:12:02;;;;;;;11.85;9.95;;;;;;;21.30;78.22;101506.03;5114542;28;20435;-58
2022/07/31 08:14:27;;;;;;;13.65;9.75;;;;;;;21.41;78.07;101503.72;5114773;28;20459;-59
2022/07/31 08:16:53;;;;;;;12.63;10.30;;;;;;;21.43;77.99;101505.38;5115098;28;20035;-58
2022/07/31 08:19:19;;;;;;;10.82;9.23;;;;;;;21.50;77.68;101501.44;5115179;28;20558;-58
2022/07/31 08:21:44;;;;;;;10.45;9.02;;;;;;;21.67;77.16;101492.63;5115000;28;20118;-57
2022/07/31 08:24:15;;;;;;;10.48;9.18;;;;;;;21.79;76.59;101500.06;5114727;28;20059;-59
2022/07/31 08:29:24;;;;;;;12.98;8.70;;;;;;;22.07;75.56;101493.34;5114716;28;20100;-59
2022/07/31 08:31:50;;;;;;;11.50;8.90;;;;;;;21.96;75.88;101499.19;5114283;28;20043;-58
2022/07/31 08:34:16;;;;;;;12.27;9.30;;;;;;;21.83;76.34;101492.75;5098728;28;20290;-59
2022/07/31 08:36:42;;;;;;;13.98;8.75;;;;;;;21.96;76.18;101498.34;5096730;28;20062;-57
2022/07/31 08:39:08;;;;;;;12.10;8.43;;;;;;;22.08;75.86;101501.28;5094094;28;20036;-57
2022/07/31 08:41:33;;;;;;;12.32;9.48;;;;;;;22.06;76.22;101503.16;5093777;28;20078;-57
2022/07/31 08:43:59;;;;;;;10.35;7.95;;;;;;;21.98;76.13;101502.66;5094030;28;20059;-57
2022/07/31 08:46:26;;;;;;;10.25;8.98;;;;;;;21.93;76.34;101502.03;5094287;28;20119;-58
2022/07/31 08:48:55;;;;;;;11.45;8.35;;;;;;;21.75;77.01;101497.59;5103466;28;20369;-57
2022/07/31 08:51:22;;;;;;;11.75;8.45;;;;;;;21.69;77.20;101500.56;5108164;28;20501;-57
2022/07/31 08:53:49;;;;;;;11.80;8.75;;;;;;;21.58;77.67;101501.09;5102375;28;20070;-57
2022/07/31 08:56:15;;;;;;;11.00;8.60;;;;;;;21.53;78.41;101505.78;5099008;28;20096;-58
2022/07/31 08:58:41;;;;;;;10.30;8.20;;;;;;;21.54;78.30;101502.19;5103756;28;20039;-57
2022/07/31 09:01:09;;;;;;;8.95;7.70;;;;;;;21.49;78.60;101506.84;5102491;28;20067;-58
2022/07/31 09:03:35;;;;;;;9.95;7.70;;;;;;;21.54;78.60;101503.03;5109264;28;20031;-58
2022/07/31 09:06:00;;;;;;;9.02;8.05;;;;;;;21.61;78.25;101500.94;5103367;28;20062;-58
2022/07/31 09:08:25;;;;;;;10.45;7.38;;;;;;;21.77;77.66;101501.06;5094740;28;20032;-57
2022/07/31 09:11:11;;;;;;;10.27;7.88;;;;;;;21.98;77.15;101501.78;5094544;28;20032;-57
2022/07/31 09:13:37;;;;;;;9.10;7.68;;;;;;;22.11;76.38;101498.47;5094627;28;20414;-58
2022/07/31 09:16:03;;;;;;;11.57;8.57;;;;;;;22.01;76.08;101497.19;5092025;28;20111;-58
2022/07/31 09:18:29;;;;;;;13.90;8.80;;;;;;;21.97;76.16;101490.28;5092040;28;20039;-57
2022/07/31 09:20:55;;;;;;;9.65;8.13;;;;;;;21.92;76.85;101491.44;5091374;28;20036;-58
2022/07/31 09:23:21;;;;;;;10.68;8.10;;;;;;;21.95;76.57;101480.63;5091904;28;20092;-58
2022/07/31 09:26:00;;;;;;;9.73;7.97;;;;;;;22.09;76.67;101486.13;5091403;28;20498;-58
2022/07/31 09:28:34;;;;;;;9.95;6.88;;;;;;;22.39;75.92;101487.22;5091706;28;20044;-58
2022/07/31 09:31:00;;;;;;;8.70;6.97;;;;;;;22.62;74.96;101479.81;5091690;28;20778;-58
2022/07/31 09:33:28;;;;;;;8.13;7.00;;;;;;;22.77;74.02;101473.69;5090957;28;20374;-58
2022/07/31 09:35:55;;;;;;;7.93;6.90;;;;;;;22.95;73.39;101480.69;5096497;28;20028;-56
2022/07/31 09:38:27;;;;;;;8.35;7.45;;;;;;;22.98;73.33;101480.53;5091888;28;20032;-57
2022/07/31 09:40:53;;;;;;;8.57;7.57;;;;;;;23.04;72.34;101485.50;5098935;28;20031;-57
2022/07/31 09:43:23;;;;;;;8.48;7.47;;;;;;;23.10;71.97;101484.31;5101192;28;20120;-57
2022/07/31 09:46:02;;;;;;;10.60;6.95;;;;;;;23.24;71.79;101484.41;5090762;28;20454;-57
2022/07/31 09:48:28;;;;;;;11.35;7.20;;;;;;;23.41;71.04;101486.13;5091436;28;20455;-56
2022/07/31 09:50:55;;;;;;;10.60;7.40;;;;;;;23.47;69.95;101477.78;5091264;28;20042;-57
2022/07/31 09:53:20;;;;;;;8.60;7.65;;;;;;;23.45;70.46;101477.00;5110559;28;20446;-55
2022/07/31 09:55:55;;;;;;;7.90;6.70;;;;;;;23.58;70.23;101470.88;5112765;28;20093;-56
2022/07/31 09:58:21;;;;;;;8.45;6.82;;;;;;;23.64;69.65;101482.19;5112850;28;20031;-57
2022/07/31 10:00:50;;;;;;;7.07;6.38;;;;;;;23.77;69.71;101470.69;5112452;28;20458;-58
2022/07/31 10:03:17;;;;;;;9.35;6.03;;;;;;;24.07;69.02;101467.16;5097875;28;20070;-57
2022/07/31 10:05:44;;;;;;;8.20;5.90;;;;;;;24.13;68.07;101462.28;5092452;28;20027;-58
2022/07/31 10:08:12;;;;;;;10.95;6.15;;;;;;;24.11;68.36;101466.00;5092330;28;20450;-58
2022/07/31 10:10:38;;;;;;;6.38;5.43;;;;;;;23.99;67.82;101477.44;5092390;28;20020;-58
2022/07/31 10:13:07;;;;;;;6.82;5.22;;;;;;;23.99;68.31;101477.44;5092156;28;20031;-56
2022/07/31 10:15:35;;;;;;;7.10;5.22;;;;;;;23.92;68.37;101479.59;5091777;28;20048;-57
2022/07/31 10:18:01;;;;;;;7.68;4.90;;;;;;;23.98;68.79;101467.69;5091892;28;20028;-57
2022/07/31 10:20:28;;;;;;;8.20;4.95;;;;;;;23.87;68.31;101473.69;5092074;28;20031;-57
2022/07/31 10:22:58;;;;;;;7.20;5.28;;;;;;;23.81;68.26;101474.91;5092013;28;20067;-56
2022/07/31 10:25:26;;;;;;;6.47;4.78;;;;;;;23.88;68.32;101467.41;5092349;28;20064;-57
2022/07/31 10:27:53;;;;;;;7.22;5.00;;;;;;;23.86;67.45;101464.81;5092315;28;20043;-57
2022/07/31 10:30:19;;;;;;;6.00;4.53;;;;;;;23.81;68.19;101471.38;5092066;28;20123;-57
2022/07/31 10:32:44;;;;;;;6.70;4.30;;;;;;;23.85;67.88;101465.75;5090935;28;20120;-57
2022/07/31 10:35:10;;;;;;;5.68;4.65;;;;;;;23.99;67.99;101462.25;5091602;28;20074;-58
2022/07/31 10:37:44;;;;;;;6.53;4.40;;;;;;;24.28;66.77;101457.84;5091852;28;20035;-57
2022/07/31 10:40:12;;;;;;;7.35;4.40;;;;;;;24.51;66.16;101453.78;5091683;28;20036;-58
2022/07/31 10:42:57;;;;;;;6.32;4.10;;;;;;;24.75;65.71;101454.09;5091600;28;20347;-58
2022/07/31 10:45:23;;;;;;;8.73;4.22;;;;;;;24.95;64.56;101449.19;5091177;28;20100;-58
2022/07/31 10:47:58;;;;;;;6.13;4.20;;;;;;;24.91;63.87;101460.19;5091604;28;20032;-58
2022/07/31 10:50:29;;;;;;;4.53;4.10;;;;;;;24.60;64.88;101450.53;5091507;28;20097;-58
2022/07/31 10:52:54;;;;;;;4.95;4.30;;;;;;;24.53;65.26;101449.19;5091167;28;20455;-58
2022/07/31 10:55:23;;;;;;;6.13;3.85;;;;;;;24.49;65.78;101445.84;5098530;28;20089;-57
2022/07/31 10:57:50;;;;;;;4.75;4.05;;;;;;;24.35;65.03;101448.53;5111819;28;20032;-57
2022/07/31 11:00:17;;;;;;;5.90;3.70;;;;;;;24.08;66.23;101444.78;5112057;28;20316;-57
2022/07/31 11:02:43;;;;;;;6.88;4.00;;;;;;;24.03;66.66;101441.56;5111928;28;20040;-57
2022/07/31 11:05:19;;;;;;;5.47;4.03;;;;;;;24.25;66.35;101442.84;5111646;28;20054;-58
2022/07/31 11:07:45;;;;;;;5.18;4.13;;;;;;;24.37;65.24;101437.72;5111698;28;20039;-58
2022/07/31 11:10:20;;;;;;;7.63;4.00;;;;;;;24.44;66.04;101428.34;5111341;28;20027;-58
2022/07/31 11:12:58;;;;;;;6.93;3.88;;;;;;;24.62;65.38;101438.78;5108444;28;20069;-57
2022/07/31 11:15:24;;;;;;;5.38;3.88;;;;;;;24.59;65.28;101438.94;5111752;28;20035;-57
2022/07/31 11:17:51;;;;;;;5.80;3.53;;;;;;;24.81;65.09;101432.25;5111333;28;20036;-58
2022/07/31 11:20:18;;;;;;;4.75;3.58;;;;;;;24.99;63.87;101436.47;5111928;28;20050;-57